Time;durP1;ratioP1;P1;durP2;ratioP2;P2;SDS_P1;SDS_P2;PMS_P1;PMS_P2;Temp;Humidity;BMP_temperature;BMP_pressure;BME280_temperature;BME280_humidity;BME280_pressure;Samples;Min_cycle;Max_cycle;Signal;HPM_P1;HPM_P2
2023/12/27 00:00:44;;;;;;;2.87;2.53;;;;;5.40;94541.00;;;;7401661;19;20224;-75
2023/12/27 00:03:21;;;;;;;5.33;2.60;;;;;5.30;94544.00;;;;7404101;19;20500;-75
2023/12/27 00:05:49;;;;;;;5.43;2.30;;;;;5.30;94556.00;;;;7405076;19;20596;-75
2023/12/27 00:08:23;;;;;;;3.13;2.00;;;;;5.30;94545.00;;;;7404791;19;20156;-77
2023/12/27 00:10:59;;;;;;;5.07;2.13;;;;;5.20;94548.00;;;;7403200;19;20636;-78
2023/12/27 00:13:29;;;;;;;4.17;2.03;;;;;5.20;94561.00;;;;7403179;19;20148;-75
2023/12/27 00:16:03;;;;;;;5.63;2.10;;;;;5.20;94551.00;;;;7404469;19;20150;-76
2023/12/27 00:18:31;;;;;;;3.00;2.20;;;;;5.10;94546.00;;;;7402624;19;20556;-76
2023/12/27 00:21:05;;;;;;;3.20;2.37;;;;;5.30;94548.00;;;;7401591;19;20478;-76
2023/12/27 00:23:33;;;;;;;4.67;2.17;;;;;5.20;94543.00;;;;7402597;19;20151;-76
2023/12/27 00:26:08;;;;;;;2.30;1.93;;;;;5.20;94540.00;;;;7401808;19;20204;-75
2023/12/27 00:28:35;;;;;;;3.23;2.13;;;;;5.20;94531.00;;;;7402460;19;20601;-75
2023/12/27 00:31:16;;;;;;;5.67;2.50;;;;;5.30;94535.00;;;;7402601;19;20543;-76
2023/12/27 00:33:50;;;;;;;5.27;2.43;;;;;5.20;94541.00;;;;7401701;19;20180;-75
2023/12/27 00:36:30;;;;;;;3.93;2.60;;;;;5.30;94534.00;;;;7402417;19;20613;-76
2023/12/27 00:39:08;;;;;;;5.47;2.97;;;;;5.30;94535.00;;;;7402277;19;20137;-75
2023/12/27 00:41:38;;;;;;;2.83;2.37;;;;;5.20;94543.00;;;;7401614;19;20609;-75
2023/12/27 00:44:12;;;;;;;5.00;2.70;;;;;5.20;94531.00;;;;7404187;19;20137;-70
2023/12/27 00:46:44;;;;;;;9.03;2.33;;;;;5.20;94537.00;;;;7403140;19;20584;-72
2023/12/27 00:49:12;;;;;;;7.60;2.80;;;;;5.20;94533.00;;;;7401847;19;20132;-71
2023/12/27 00:51:48;;;;;;;5.83;2.77;;;;;5.20;94532.00;;;;7401503;19;20616;-71
2023/12/27 00:54:22;;;;;;;8.83;2.90;;;;;5.30;94531.00;;;;7401644;19;20192;-72
2023/12/27 00:56:49;;;;;;;10.70;3.63;;;;;5.20;94540.00;;;;7401135;19;20155;-73
2023/12/27 00:59:17;;;;;;;7.83;3.47;;;;;5.20;94548.00;;;;7401875;19;20144;-70
2023/12/27 01:01:51;;;;;;;11.67;3.10;;;;;5.10;94549.00;;;;7400555;19;20125;-70
2023/12/27 01:04:25;;;;;;;8.13;3.27;;;;;5.30;94542.00;;;;7399139;19;20133;-70
2023/12/27 01:06:59;;;;;;;6.03;3.00;;;;;5.20;94535.00;;;;7401449;19;20145;-72
2023/12/27 01:09:33;;;;;;;11.43;3.60;;;;;5.20;94537.00;;;;7401462;19;20604;-72
2023/12/27 01:12:01;;;;;;;15.90;3.77;;;;;5.10;94552.00;;;;7401459;19;20129;-71
2023/12/27 01:14:35;;;;;;;9.77;3.00;;;;;5.00;94551.00;;;;7400187;19;20161;-74
2023/12/27 01:17:03;;;;;;;7.90;3.30;;;;;4.90;94548.00;;;;7400022;19;20165;-71
2023/12/27 01:19:37;;;;;;;10.07;3.53;;;;;5.00;94544.00;;;;7402202;19;20588;-71
2023/12/27 01:22:10;;;;;;;5.50;3.20;;;;;4.90;94535.00;;;;7398746;19;20597;-71
2023/12/27 01:24:44;;;;;;;16.43;4.07;;;;;4.90;94535.00;;;;7401827;19;20136;-73
2023/12/27 01:27:11;;;;;;;4.77;3.10;;;;;4.80;94522.00;;;;7400597;19;20133;-70
2023/12/27 01:29:45;;;;;;;11.63;3.73;;;;;5.00;94528.00;;;;7399914;19;20148;-72
2023/12/27 01:32:13;;;;;;;9.33;4.00;;;;;5.00;94527.00;;;;7399987;19;20139;-72
2023/12/27 01:34:54;;;;;;;7.87;3.20;;;;;4.90;94525.00;;;;7399203;19;20144;-71
2023/12/27 01:37:22;;;;;;;9.77;3.70;;;;;5.00;94529.00;;;;7400053;19;20223;-72
2023/12/27 01:39:55;;;;;;;10.30;2.87;;;;;4.90;94527.00;;;;7401370;19;20137;-73
2023/12/27 01:42:28;;;;;;;10.00;3.10;;;;;5.00;94527.00;;;;7398848;19;20145;-72
2023/12/27 01:45:14;;;;;;;3.93;3.00;;;;;5.00;94525.00;;;;7401920;19;20141;-72
2023/12/27 01:47:45;;;;;;;8.33;3.00;;;;;5.20;94529.00;;;;7400474;19;20149;-71
2023/12/27 01:50:19;;;;;;;5.83;3.03;;;;;5.10;94544.00;;;;7400231;19;20145;-72
2023/12/27 01:52:55;;;;;;;6.90;3.30;;;;;5.10;94530.00;;;;7401585;19;20148;-70
2023/12/27 01:55:30;;;;;;;5.43;2.63;;;;;5.10;94538.00;;;;7400449;19;20120;-74
2023/12/27 01:57:57;;;;;;;9.53;2.77;;;;;5.00;94531.00;;;;7400060;19;20132;-75
2023/12/27 02:00:32;;;;;;;6.30;2.40;;;;;5.20;94535.00;;;;7399635;19;20148;-75
2023/12/27 02:03:00;;;;;;;4.63;2.30;;;;;5.00;94534.00;;;;7397590;19;20149;-74
2023/12/27 02:05:27;;;;;;;2.87;2.27;;;;;5.20;94534.00;;;;7399710;19;20173;-74
2023/12/27 02:08:04;;;;;;;4.77;1.83;;;;;5.20;94531.00;;;;7401140;19;20117;-74
2023/12/27 02:10:34;;;;;;;2.70;1.73;;;;;5.00;94533.00;;;;7399382;19;20584;-74
2023/12/27 02:13:09;;;;;;;3.13;1.80;;;;;5.10;94531.00;;;;7400144;19;20121;-75
2023/12/27 02:15:43;;;;;;;3.73;1.93;;;;;5.20;94526.00;;;;7400273;19;20161;-74
2023/12/27 02:18:17;;;;;;;4.20;1.87;;;;;5.10;94524.00;;;;7398835;19;20146;-75
2023/12/27 02:20:48;;;;;;;4.33;2.37;;;;;5.10;94520.00;;;;7399461;19;20137;-74
2023/12/27 02:23:24;;;;;;;3.97;2.67;;;;;5.20;94521.00;;;;7399677;19;20620;-75
2023/12/27 02:25:58;;;;;;;3.30;2.60;;;;;5.10;94517.00;;;;7400183;19;20133;-73
2023/12/27 02:28:32;;;;;;;5.50;2.20;;;;;5.20;94529.00;;;;7400123;19;20144;-74
2023/12/27 02:31:07;;;;;;;7.63;2.30;;;;;5.20;94530.00;;;;7398701;19;20128;-74
2023/12/27 02:33:46;;;;;;;6.60;2.20;;;;;5.10;94528.00;;;;7397892;19;20160;-75
2023/12/27 02:36:29;;;;;;;3.30;2.40;;;;;5.20;94519.00;;;;7400104;19;20145;-74
2023/12/27 02:38:57;;;;;;;2.33;1.80;;;;;5.20;94507.00;;;;7397752;19;20169;-74
2023/12/27 02:41:31;;;;;;;2.10;1.70;;;;;5.20;94509.00;;;;7398411;19;20129;-75
2023/12/27 02:44:05;;;;;;;2.00;1.63;;;;;5.20;94502.00;;;;7398728;19;20155;-73
2023/12/27 02:46:39;;;;;;;3.30;1.87;;;;;5.20;94498.00;;;;7398322;19;20514;-73
2023/12/27 02:49:06;;;;;;;1.50;1.40;;;;;5.20;94493.00;;;;7399672;19;20137;-74
2023/12/27 02:51:41;;;;;;;2.70;1.30;;;;;5.20;94493.00;;;;7398480;19;20211;-73
2023/12/27 02:54:08;;;;;;;3.47;1.57;;;;;5.10;94487.00;;;;7399800;19;20613;-73
2023/12/27 02:56:43;;;;;;;4.07;1.70;;;;;4.90;94484.00;;;;7397912;19;20612;-73
2023/12/27 02:59:10;;;;;;;2.40;1.33;;;;;4.90;94495.00;;;;7399619;19;20125;-74
2023/12/27 03:01:45;;;;;;;1.57;1.30;;;;;4.90;94489.00;;;;7399756;19;20727;-74
2023/12/27 03:04:15;;;;;;;5.13;1.33;;;;;4.80;94494.00;;;;7399850;19;20661;-76
2023/12/27 03:06:49;;;;;;;5.40;1.50;;;;;4.80;94488.00;;;;7396993;19;20596;-75
2023/12/27 03:09:17;;;;;;;2.27;1.50;;;;;4.60;94483.00;;;;7399046;19;20117;-74
2023/12/27 03:11:51;;;;;;;2.30;1.80;;;;;4.60;94488.00;;;;7398484;19;20144;-75
2023/12/27 03:14:19;;;;;;;8.30;1.67;;;;;4.70;94489.00;;;;7397928;19;20208;-74
2023/12/27 03:16:58;;;;;;;3.47;1.80;;;;;4.70;94483.00;;;;7397972;19;20133;-75
2023/12/27 03:19:34;;;;;;;2.67;1.60;;;;;4.80;94484.00;;;;7399073;19;20133;-75
2023/12/27 03:22:14;;;;;;;4.43;1.97;;;;;4.60;94480.00;;;;7397506;19;20133;-74
2023/12/27 03:24:47;;;;;;;3.33;1.70;;;;;4.60;94475.00;;;;7399417;19;20492;-76
2023/12/27 03:27:21;;;;;;;2.13;1.33;;;;;4.60;94466.00;;;;7398772;19;20155;-76
2023/12/27 03:29:55;;;;;;;3.53;1.60;;;;;4.60;94462.00;;;;7407135;19;20125;-75
2023/12/27 03:32:30;;;;;;;2.03;1.60;;;;;4.50;94463.00;;;;7407127;19;20509;-75
2023/12/27 03:35:11;;;;;;;1.27;1.17;;;;;4.40;94467.00;;;;7403327;19;20679;-74
2023/12/27 03:37:45;;;;;;;2.40;1.50;;;;;4.20;94470.00;;;;7405373;19;20133;-75
2023/12/27 03:40:13;;;;;;;1.70;1.27;;;;;4.20;94463.00;;;;7405160;19;20148;-76
2023/12/27 03:42:41;;;;;;;2.53;1.07;;;;;4.20;94466.00;;;;7403187;19;20239;-77
2023/12/27 03:45:17;;;;;;;3.93;1.37;;;;;4.20;94470.00;;;;7404694;19;20148;-75
2023/12/27 03:47:49;;;;;;;1.13;1.03;;;;;4.20;94468.00;;;;7404284;19;20140;-75
2023/12/27 03:50:16;;;;;;;1.77;1.10;;;;;4.20;94462.00;;;;7404694;19;20484;-76
2023/12/27 03:52:50;;;;;;;1.87;1.20;;;;;4.20;94458.00;;;;7404740;19;20137;-76
2023/12/27 03:55:27;;;;;;;0.93;0.87;;;;;4.30;94449.00;;;;7403832;19;20541;-76
2023/12/27 03:57:57;;;;;;;3.53;1.53;;;;;4.20;94450.00;;;;7405763;19;20127;-76
2023/12/27 04:00:31;;;;;;;2.07;1.33;;;;;4.20;94447.00;;;;7403615;19;20136;-78
2023/12/27 04:02:59;;;;;;;1.93;1.53;;;;;4.20;94443.00;;;;7402835;19;20174;-76
2023/12/27 04:05:33;;;;;;;1.87;1.30;;;;;4.20;94444.00;;;;7403234;19;20144;-75
2023/12/27 04:08:01;;;;;;;1.70;1.30;;;;;4.30;94451.00;;;;7403716;19;20132;-75
2023/12/27 04:10:35;;;;;;;1.07;0.90;;;;;4.30;94435.00;;;;7403128;19;20145;-75
2023/12/27 04:13:05;;;;;;;2.93;1.33;;;;;4.40;94436.00;;;;7403844;19;20145;-78
2023/12/27 04:15:40;;;;;;;2.80;1.10;;;;;4.50;94445.00;;;;7402886;19;20141;-74
2023/12/27 04:18:14;;;;;;;3.60;1.30;;;;;4.40;94446.00;;;;7403596;19;20129;-74
2023/12/27 04:20:42;;;;;;;1.20;1.00;;;;;4.50;94435.00;;;;7402551;19;20546;-74
2023/12/27 04:23:09;;;;;;;2.17;1.17;;;;;4.40;94434.00;;;;7401700;19;20143;-74
2023/12/27 04:25:44;;;;;;;1.23;0.83;;;;;4.50;94438.00;;;;7403340;19;20128;-74
2023/12/27 04:28:14;;;;;;;3.43;1.00;;;;;4.60;94426.00;;;;7403494;19;20163;-74
2023/12/27 04:31:11;;;;;;;2.57;1.23;;;;;4.70;94427.00;;;;7399923;19;20216;-74
2023/12/27 04:33:52;;;;;;;2.23;1.00;;;;;4.70;94436.00;;;;7401684;19;20183;-74
2023/12/27 04:36:33;;;;;;;2.33;1.33;;;;;4.40;94425.00;;;;7402621;19;20141;-74
2023/12/27 04:39:07;;;;;;;1.50;1.10;;;;;4.30;94429.00;;;;7402706;19;20619;-74
2023/12/27 04:41:35;;;;;;;1.70;1.30;;;;;4.50;94432.00;;;;7401003;19;20220;-74
2023/12/27 04:44:09;;;;;;;1.50;1.30;;;;;4.60;94425.00;;;;7400791;19;20604;-74
2023/12/27 04:46:39;;;;;;;1.67;1.20;;;;;4.60;94432.00;;;;7402306;19;20616;-74
2023/12/27 04:49:13;;;;;;;2.90;1.10;;;;;4.70;94438.00;;;;7403716;19;20148;-75
2023/12/27 04:51:47;;;;;;;2.40;1.40;;;;;4.70;94437.00;;;;7401309;19;20143;-74
2023/12/27 04:54:22;;;;;;;1.87;1.30;;;;;4.60;94438.00;;;;7402246;19;20155;-75
2023/12/27 04:56:54;;;;;;;4.10;2.27;;;;;4.50;94432.00;;;;7403050;19;20600;-75
2023/12/27 04:59:30;;;;;;;4.30;1.40;;;;;4.40;94425.00;;;;7402054;19;20128;-74
2023/12/27 05:02:04;;;;;;;1.93;1.07;;;;;4.60;94423.00;;;;7401028;19;20164;-74
2023/12/27 05:04:38;;;;;;;1.70;1.40;;;;;4.60;94429.00;;;;7399575;19;20133;-76
2023/12/27 05:07:06;;;;;;;2.67;1.60;;;;;4.30;94420.00;;;;7400250;19;20133;-75
2023/12/27 05:09:40;;;;;;;4.20;1.67;;;;;4.40;94425.00;;;;7403266;19;20608;-75
2023/12/27 05:12:14;;;;;;;4.23;1.50;;;;;4.40;94427.00;;;;7400998;19;20141;-74
2023/12/27 05:14:42;;;;;;;6.73;1.80;;;;;4.50;94426.00;;;;7402747;19;20580;-75
2023/12/27 05:17:16;;;;;;;2.67;1.70;;;;;4.50;94420.00;;;;7401888;19;20611;-76
2023/12/27 05:19:43;;;;;;;2.63;1.73;;;;;4.50;94418.00;;;;7402637;19;20129;-75
2023/12/27 05:22:11;;;;;;;3.53;1.77;;;;;4.40;94421.00;;;;7400990;19;20583;-76
2023/12/27 05:24:45;;;;;;;2.50;1.70;;;;;4.40;94422.00;;;;7400831;19;20605;-77
2023/12/27 05:27:13;;;;;;;3.13;1.73;;;;;4.40;94408.00;;;;7401327;19;20631;-74
2023/12/27 05:29:47;;;;;;;3.30;1.60;;;;;4.50;94412.00;;;;7384618;19;20128;-75
2023/12/27 05:32:24;;;;;;;5.53;2.07;;;;;4.30;94402.00;;;;7388967;19;20224;-76
2023/12/27 05:35:12;;;;;;;3.40;1.90;;;;;4.40;94404.00;;;;7390882;19;20157;-73
2023/12/27 05:37:47;;;;;;;3.03;2.00;;;;;4.30;94402.00;;;;7389669;19;20149;-76
2023/12/27 05:40:29;;;;;;;2.60;1.80;;;;;4.30;94397.00;;;;7389131;19;20154;-76
2023/12/27 05:43:04;;;;;;;3.97;1.60;;;;;4.30;94393.00;;;;7390096;19;20156;-72
2023/12/27 05:45:32;;;;;;;6.97;1.90;;;;;4.30;94388.00;;;;7388922;19;20145;-76
2023/12/27 05:48:12;;;;;;;5.00;1.70;;;;;4.30;94399.00;;;;7390150;19;20154;-75
2023/12/27 05:50:46;;;;;;;4.77;1.80;;;;;4.30;94404.00;;;;7387321;19;20125;-75
2023/12/27 05:53:20;;;;;;;5.10;2.00;;;;;4.20;94403.00;;;;7389539;19;21894;-75
2023/12/27 05:55:51;;;;;;;4.40;2.00;;;;;4.10;94393.00;;;;7387832;19;20644;-75
2023/12/27 05:58:26;;;;;;;3.10;1.80;;;;;4.20;94399.00;;;;7390875;19;20128;-76
2023/12/27 06:01:04;;;;;;;5.07;2.10;;;;;4.20;94410.00;;;;7388812;19;20149;-74
2023/12/27 06:03:38;;;;;;;3.00;2.20;;;;;4.20;94399.00;;;;7388680;19;20154;-76
2023/12/27 06:06:06;;;;;;;3.37;2.00;;;;;4.10;94395.00;;;;7389655;19;20149;-76
2023/12/27 06:08:40;;;;;;;4.93;2.03;;;;;4.00;94389.00;;;;7387389;19;20158;-77
2023/12/27 06:11:11;;;;;;;8.13;2.47;;;;;3.90;94383.00;;;;7390495;19;20132;-72
2023/12/27 06:13:49;;;;;;;6.40;2.10;;;;;3.90;94379.00;;;;7387911;19;20137;-74
2023/12/27 06:16:26;;;;;;;4.57;2.20;;;;;3.80;94373.00;;;;7387788;19;20521;-74
2023/12/27 06:19:01;;;;;;;8.03;2.17;;;;;3.50;94368.00;;;;7387837;19;20131;-72
2023/12/27 06:21:36;;;;;;;4.33;2.43;;;;;3.40;94376.00;;;;7388585;19;20542;-76
2023/12/27 06:24:13;;;;;;;7.83;2.90;;;;;3.50;94384.00;;;;7389198;19;20132;-74
2023/12/27 06:26:48;;;;;;;6.83;2.70;;;;;3.60;94375.00;;;;7387770;19;20508;-74
2023/12/27 06:29:20;;;;;;;5.53;2.50;;;;;3.70;94380.00;;;;7388273;19;20152;-75
2023/12/27 06:31:54;;;;;;;8.53;3.03;;;;;3.70;94378.00;;;;7388046;19;20595;-75
2023/12/27 06:34:23;;;;;;;5.77;2.80;;;;;3.70;94378.00;;;;7386966;19;20663;-74
2023/12/27 06:36:57;;;;;;;7.20;3.20;;;;;3.70;94380.00;;;;7387358;19;20162;-74
2023/12/27 06:39:25;;;;;;;6.83;3.20;;;;;3.60;94372.00;;;;7387761;19;20192;-74
2023/12/27 06:42:02;;;;;;;6.80;3.10;;;;;3.70;94379.00;;;;7387246;19;20179;-74
2023/12/27 06:44:30;;;;;;;7.17;3.10;;;;;3.70;94374.00;;;;7386953;19;20152;-74
2023/12/27 06:47:07;;;;;;;6.83;3.27;;;;;3.70;94380.00;;;;7387039;19;20679;-74
2023/12/27 06:49:41;;;;;;;5.53;2.77;;;;;3.80;94376.00;;;;7387511;19;20140;-74
2023/12/27 06:52:17;;;;;;;9.70;2.80;;;;;3.80;94387.00;;;;7388229;19;20720;-74
2023/12/27 06:54:48;;;;;;;8.20;3.37;;;;;3.70;94380.00;;;;7386730;19;22070;-74
2023/12/27 06:57:27;;;;;;;6.80;3.40;;;;;3.90;94383.00;;;;7385694;19;20204;-75
2023/12/27 06:59:55;;;;;;;9.47;3.47;;;;;3.80;94383.00;;;;7385277;19;20149;-74
2023/12/27 07:02:30;;;;;;;5.03;3.20;;;;;3.90;94388.00;;;;7382362;19;20213;-74
2023/12/27 07:05:02;;;;;;;9.00;3.50;;;;;3.80;94387.00;;;;7384744;19;20145;-75
2023/12/27 07:07:37;;;;;;;8.73;3.30;;;;;3.90;94374.00;;;;7385384;19;23225;-74
2023/12/27 07:10:12;;;;;;;5.67;2.93;;;;;3.80;94377.00;;;;7388040;19;20145;-76
2023/12/27 07:12:47;;;;;;;5.23;3.20;;;;;3.90;94358.00;;;;7399376;19;20133;-75
2023/12/27 07:15:25;;;;;;;5.77;3.07;;;;;3.80;94361.00;;;;7397343;19;20491;-75
2023/12/27 07:18:01;;;;;;;10.20;3.70;;;;;3.90;94366.00;;;;7399142;19;20133;-75
2023/12/27 07:20:30;;;;;;;11.73;4.17;;;;;3.90;94359.00;;;;7397192;19;20153;-75
2023/12/27 07:23:04;;;;;;;10.30;3.43;;;;;3.70;94366.00;;;;7397928;19;20204;-75
2023/12/27 07:25:36;;;;;;;10.83;3.87;;;;;3.90;94362.00;;;;7395693;19;20133;-75
2023/12/27 07:28:06;;;;;;;8.43;3.37;;;;;3.90;94360.00;;;;7399286;19;20608;-75
2023/12/27 07:30:41;;;;;;;6.80;3.20;;;;;3.80;94366.00;;;;7397663;19;20136;-75
2023/12/27 07:33:22;;;;;;;8.27;3.43;;;;;3.90;94357.00;;;;7397461;19;20152;-75
2023/12/27 07:35:57;;;;;;;4.97;3.20;;;;;3.70;94360.00;;;;7396046;19;20153;-74
2023/12/27 07:38:31;;;;;;;5.37;3.30;;;;;3.90;94364.00;;;;7398763;19;20121;-75
2023/12/27 07:41:08;;;;;;;6.40;3.30;;;;;3.90;94380.00;;;;7397225;19;20783;-75
2023/12/27 07:43:46;;;;;;;5.33;3.60;;;;;4.10;94372.00;;;;7394420;19;20155;-76
2023/12/27 07:46:14;;;;;;;12.07;4.20;;;;;3.90;94372.00;;;;7396955;19;20482;-72
2023/12/27 07:48:47;;;;;;;8.93;3.87;;;;;3.80;94381.00;;;;7396157;19;20149;-70
2023/12/27 07:51:24;;;;;;;7.63;3.40;;;;;3.90;94372.00;;;;7398049;19;20142;-70
2023/12/27 07:53:58;;;;;;;19.63;5.77;;;;;3.80;94369.00;;;;7395941;19;20132;-72
2023/12/27 07:56:28;;;;;;;10.43;3.77;;;;;3.90;94374.00;;;;7397833;19;20126;-70
2023/12/27 07:59:04;;;;;;;7.20;3.10;;;;;3.90;94377.00;;;;7395426;19;20132;-71
2023/12/27 08:01:32;;;;;;;8.80;3.27;;;;;3.80;94390.00;;;;7395492;19;20145;-71
2023/12/27 08:04:06;;;;;;;4.33;2.97;;;;;3.80;94382.00;;;;7387491;19;20158;-74
2023/12/27 08:06:34;;;;;;;6.80;3.30;;;;;3.80;94389.00;;;;7385340;19;20477;-73
2023/12/27 08:09:13;;;;;;;7.23;3.80;;;;;3.80;94398.00;;;;7395393;19;20131;-73
2023/12/27 08:11:43;;;;;;;9.83;3.80;;;;;3.70;94392.00;;;;7396763;19;20128;-71
2023/12/27 08:14:17;;;;;;;7.07;3.80;;;;;3.90;94375.00;;;;7401402;19;20153;-72
2023/12/27 08:16:44;;;;;;;5.60;3.83;;;;;3.90;94377.00;;;;7404263;19;20585;-71
2023/12/27 08:19:12;;;;;;;7.97;4.57;;;;;4.00;94372.00;;;;7401945;19;20173;-71
2023/12/27 08:21:49;;;;;;;8.63;3.90;;;;;4.10;94366.00;;;;7403906;19;20532;-73
2023/12/27 08:24:23;;;;;;;6.40;3.43;;;;;4.00;94386.00;;;;7403798;19;20133;-72
2023/12/27 08:26:53;;;;;;;5.20;2.87;;;;;4.00;94385.00;;;;7399452;19;20145;-72
2023/12/27 08:29:30;;;;;;;6.73;3.10;;;;;4.10;94386.00;;;;7400987;19;20624;-72
2023/12/27 08:32:20;;;;;;;5.17;3.20;;;;;4.10;94382.00;;;;7401743;19;20160;-72
2023/12/27 08:35:06;;;;;;;4.30;3.10;;;;;3.90;94368.00;;;;7400245;19;20173;-71
2023/12/27 08:37:46;;;;;;;3.73;2.47;;;;;4.00;94366.00;;;;7404042;19;20137;-71
2023/12/27 08:40:20;;;;;;;5.00;2.63;;;;;4.10;94352.00;;;;7401293;19;20172;-70
2023/12/27 08:42:48;;;;;;;6.73;2.77;;;;;4.00;94343.00;;;;7398950;19;20248;-72
2023/12/27 08:45:22;;;;;;;4.93;2.67;;;;;4.30;94336.00;;;;7401640;19;20153;-71
2023/12/27 08:47:56;;;;;;;8.63;3.10;;;;;4.20;94318.00;;;;7401409;19;20144;-71
2023/12/27 08:50:30;;;;;;;7.03;2.90;;;;;4.70;94316.00;;;;7399865;19;20157;-73
2023/12/27 08:53:05;;;;;;;7.27;2.70;;;;;5.20;94317.00;;;;7400694;19;20192;-71
2023/12/27 08:55:41;;;;;;;4.77;2.50;;;;;5.40;94321.00;;;;7399305;19;20501;-76
2023/12/27 08:58:15;;;;;;;6.10;2.47;;;;;5.50;94327.00;;;;7400836;19;20161;-77
2023/12/27 09:00:49;;;;;;;8.70;2.80;;;;;5.80;94326.00;;;;7399720;19;20220;-75
2023/12/27 09:03:26;;;;;;;4.47;2.43;;;;;6.20;94323.00;;;;7400330;19;20615;-77
2023/12/27 09:05:59;;;;;;;4.23;2.30;;;;;5.90;94327.00;;;;7397678;19;20244;-76
2023/12/27 09:08:37;;;;;;;2.67;2.23;;;;;6.30;94332.00;;;;7400335;19;20125;-76
2023/12/27 09:11:08;;;;;;;4.40;2.20;;;;;6.00;94321.00;;;;7398822;19;20129;-76
2023/12/27 09:14:05;;;;;;;4.17;2.10;;;;;6.10;94315.00;;;;7398250;19;20153;-74
2023/12/27 09:16:33;;;;;;;5.93;2.13;;;;;6.20;94313.00;;;;7401599;19;20137;-75
2023/12/27 09:19:07;;;;;;;4.33;1.80;;;;;6.40;94308.00;;;;7399289;19;20132;-76
2023/12/27 09:21:48;;;;;;;2.97;1.80;;;;;6.20;94312.00;;;;7398745;19;20648;-77
2023/12/27 09:24:16;;;;;;;4.10;1.80;;;;;5.90;94319.00;;;;7399354;19;20216;-78
2023/12/27 09:26:50;;;;;;;2.57;1.60;;;;;6.30;94322.00;;;;7395594;19;20144;-75
2023/12/27 09:29:18;;;;;;;3.97;2.97;;;;;6.60;94328.00;;;;7399884;19;20123;-74
2023/12/27 09:31:46;;;;;;;3.33;1.90;;;;;6.80;94327.00;;;;7399353;19;20165;-75
2023/12/27 09:34:32;;;;;;;5.13;1.83;;;;;7.10;94336.00;;;;7399107;19;20250;-77
2023/12/27 09:37:07;;;;;;;3.88;1.58;;;;;7.30;94325.00;;;;7397754;19;20212;-75
2023/12/27 09:39:42;;;;;;;2.15;1.27;;;;;7.30;94322.00;;;;7399236;19;20139;-76
2023/12/27 09:42:20;;;;;;;4.60;1.50;;;;;7.40;94331.00;;;;7397207;19;20169;-75
2023/12/27 09:44:56;;;;;;;2.25;1.63;;;;;8.10;94323.00;;;;7398692;19;20140;-77
2023/12/27 09:47:25;;;;;;;2.65;2.03;;;;;8.10;94329.00;;;;7396574;19;20220;-77
2023/12/27 09:50:08;;;;;;;3.50;2.72;;;;;8.60;94336.00;;;;7399580;19;20160;-78
2023/12/27 09:52:38;;;;;;;29.42;12.18;;;;;8.90;94336.00;;;;7396492;19;20492;-77
2023/12/27 09:55:12;;;;;;;12.20;5.95;;;;;9.10;94318.00;;;;7397099;19;20149;-76
2023/12/27 09:57:55;;;;;;;5.28;2.13;;;;;8.40;94294.00;;;;7398270;19;20143;-77
2023/12/27 10:00:27;;;;;;;2.53;1.33;;;;;8.20;94295.00;;;;7397627;19;20612;-77
2023/12/27 10:03:05;;;;;;;60.53;26.98;;;;;7.40;94305.00;;;;7399264;19;20890;-77
2023/12/27 10:05:58;;;;;;;65.53;32.63;;;;;7.00;94301.00;;;;7399884;19;20143;-75
2023/12/27 10:08:26;;;;;;;88.00;39.00;;;;;7.10;94287.00;;;;7398048;19;20128;-74
2023/12/27 10:11:02;;;;;;;3.90;2.30;;;;;7.10;94274.00;;;;7399752;19;20143;-75
2023/12/27 10:13:31;;;;;;;9.13;4.90;;;;;7.90;94285.00;;;;7398215;19;20580;-76
2023/12/27 10:16:08;;;;;;;5.97;2.00;;;;;8.00;94282.00;;;;7397086;19;20147;-74
2023/12/27 10:18:47;;;;;;;2.55;1.67;;;;;8.90;94263.00;;;;7398274;19;20581;-75
2023/12/27 10:21:18;;;;;;;2.78;1.60;;;;;9.70;94252.00;;;;7399576;19;20129;-77
2023/12/27 10:23:53;;;;;;;1.88;1.50;;;;;9.30;94247.00;;;;7397690;19;20608;-74
2023/12/27 10:26:23;;;;;;;2.50;1.63;;;;;10.90;94246.00;;;;7399060;19;20585;-76
2023/12/27 10:29:00;;;;;;;2.20;1.48;;;;;11.20;94243.00;;;;7398162;19;20522;-74
2023/12/27 10:31:28;;;;;;;3.55;1.60;;;;;11.80;94239.00;;;;7396789;19;20141;-74
2023/12/27 10:34:15;;;;;;;1.77;1.30;;;;;11.90;94238.00;;;;7395524;19;20178;-76
2023/12/27 10:36:50;;;;;;;2.42;1.30;;;;;12.70;94237.00;;;;7396199;19;20169;-76
2023/12/27 10:39:25;;;;;;;2.60;1.20;;;;;12.20;94243.00;;;;7399200;19;20121;-73
2023/12/27 10:41:54;;;;;;;1.88;1.30;;;;;12.00;94246.00;;;;7398568;19;20148;-74
2023/12/27 10:44:30;;;;;;;2.08;1.35;;;;;11.30;94243.00;;;;7397109;19;20143;-75
2023/12/27 10:47:00;;;;;;;2.42;1.25;;;;;10.10;94234.00;;;;7395309;19;20475;-75
2023/12/27 10:49:37;;;;;;;2.33;1.10;;;;;10.50;94230.00;;;;7396597;19;20144;-75
2023/12/27 10:52:12;;;;;;;1.33;1.17;;;;;9.70;94230.00;;;;7397395;19;20124;-74
2023/12/27 10:54:43;;;;;;;5.28;1.42;;;;;9.20;94228.00;;;;7395718;19;20196;-74
2023/12/27 10:57:21;;;;;;;2.10;1.45;;;;;9.60;94208.00;;;;7394396;19;20611;-76
2023/12/27 11:00:00;;;;;;;2.08;1.27;;;;;10.90;94209.00;;;;7396838;19;20214;-74
2023/12/27 11:02:36;;;;;;;2.58;1.23;;;;;11.50;94195.00;;;;7397478;19;21310;-74
2023/12/27 11:05:11;;;;;;;3.10;1.40;;;;;11.90;94204.00;;;;7397266;19;20156;-75
2023/12/27 11:07:46;;;;;;;3.08;1.63;;;;;12.30;94201.00;;;;7393205;19;20151;-76
2023/12/27 11:10:24;;;;;;;1.75;1.13;;;;;12.30;94214.00;;;;7394970;19;20148;-75
2023/12/27 11:12:59;;;;;;;2.13;1.15;;;;;11.30;94226.00;;;;7398252;19;20220;-75
2023/12/27 11:15:29;;;;;;;2.97;1.30;;;;;10.40;94217.00;;;;7396890;19;20129;-73
2023/12/27 11:18:08;;;;;;;1.45;0.85;;;;;10.80;94214.00;;;;7395753;19;20180;-72
2023/12/27 11:20:39;;;;;;;3.03;1.08;;;;;12.20;94191.00;;;;7397094;19;20133;-73
2023/12/27 11:23:13;;;;;;;1.48;1.05;;;;;11.60;94191.00;;;;7398351;19;20133;-72
2023/12/27 11:25:41;;;;;;;2.35;1.13;;;;;11.50;94194.00;;;;7397557;19;20125;-72
2023/12/27 11:28:08;;;;;;;1.05;0.95;;;;;11.20;94179.00;;;;7395654;19;20508;-74
2023/12/27 11:30:45;;;;;;;2.97;1.45;;;;;11.10;94171.00;;;;7396843;19;20140;-72
2023/12/27 11:33:19;;;;;;;1.42;1.17;;;;;10.30;94180.00;;;;7395496;19;20237;-74
2023/12/27 11:36:05;;;;;;;1.52;1.40;;;;;10.60;94178.00;;;;7396082;19;20140;-74
2023/12/27 11:38:33;;;;;;;3.45;1.58;;;;;10.20;94166.00;;;;7397295;19;20132;-74
2023/12/27 11:41:07;;;;;;;3.05;1.65;;;;;10.80;94167.00;;;;7395634;19;20137;-73
2023/12/27 11:43:54;;;;;;;1.75;1.52;;;;;10.60;94167.00;;;;7393800;19;20651;-73
2023/12/27 11:46:30;;;;;;;4.00;1.48;;;;;11.00;94158.00;;;;7395277;19;20624;-72
2023/12/27 11:49:04;;;;;;;2.60;1.77;;;;;11.40;94157.00;;;;7399220;19;20238;-75
2023/12/27 11:51:40;;;;;;;2.30;1.45;;;;;11.10;94163.00;;;;7402993;19;20163;-72
2023/12/27 11:54:08;;;;;;;2.55;1.30;;;;;10.40;94163.00;;;;7403187;19;20515;-74
2023/12/27 11:56:42;;;;;;;2.67;1.60;;;;;10.20;94166.00;;;;7402587;19;20489;-72
2023/12/27 11:59:16;;;;;;;4.65;1.85;;;;;9.10;94158.00;;;;7403766;19;20230;-73
2023/12/27 12:01:52;;;;;;;2.47;1.80;;;;;9.60;94163.00;;;;7402811;19;20149;-72
2023/12/27 12:05:07;;;;;;;2.00;1.80;;;;;9.10;94156.00;;;;7404291;19;20136;-71
2023/12/27 12:08:01;;;;;;;2.33;1.52;;;;;9.30;94150.00;;;;7400708;19;20144;-73
2023/12/27 12:10:29;;;;;;;2.22;1.50;;;;;9.20;94148.00;;;;7402459;19;20426;-72
2023/12/27 12:13:03;;;;;;;1.85;1.48;;;;;9.40;94136.00;;;;7403201;19;20170;-73
2023/12/27 12:15:32;;;;;;;3.97;1.38;;;;;10.10;94130.00;;;;7402989;19;20141;-73
2023/12/27 12:18:07;;;;;;;1.83;1.50;;;;;10.30;94130.00;;;;7401744;19;20148;-73
2023/12/27 12:20:35;;;;;;;2.85;1.42;;;;;9.70;94118.00;;;;7401144;19;20191;-72
2023/12/27 12:23:09;;;;;;;1.52;1.10;;;;;9.40;94119.00;;;;7401501;19;20182;-72
2023/12/27 12:25:42;;;;;;;1.73;1.10;;;;;9.30;94120.00;;;;7402173;19;20169;-76
2023/12/27 12:28:16;;;;;;;1.80;1.60;;;;;9.50;94114.00;;;;7401775;19;20625;-76
2023/12/27 12:30:51;;;;;;;4.45;1.30;;;;;9.20;94106.00;;;;7401722;19;20141;-76
2023/12/27 12:33:25;;;;;;;2.67;1.50;;;;;9.20;94108.00;;;;7402870;19;20142;-76
2023/12/27 12:36:00;;;;;;;1.67;1.40;;;;;9.30;94110.00;;;;7399813;19;20231;-76
2023/12/27 12:38:35;;;;;;;2.33;1.27;;;;;9.40;94103.00;;;;7403056;19;20129;-77
2023/12/27 12:41:03;;;;;;;1.63;1.27;;;;;9.60;94108.00;;;;7403398;19;20161;-75
2023/12/27 12:43:37;;;;;;;3.00;1.35;;;;;9.50;94094.00;;;;7399363;19;20172;-74
2023/12/27 12:46:07;;;;;;;1.48;1.17;;;;;9.50;94093.00;;;;7401930;19;20139;-75
2023/12/27 12:48:43;;;;;;;7.28;1.40;;;;;9.90;94088.00;;;;7399629;19;20133;-76
2023/12/27 12:51:17;;;;;;;2.65;1.30;;;;;10.00;94083.00;;;;7402236;19;20644;-76
2023/12/27 12:53:51;;;;;;;1.90;1.45;;;;;10.30;94083.00;;;;7402870;19;20133;-77
2023/12/27 12:56:26;;;;;;;2.20;1.50;;;;;10.20;94079.00;;;;7403212;19;20128;-78
2023/12/27 12:59:00;;;;;;;3.67;2.00;;;;;10.20;94079.00;;;;7401601;19;20157;-77